sensor_id;sensor_type;location;lat;lon;timestamp;temperature;humidity
1650;DHT22;822;53.670;8.676;2023-05-14T00:01:48;13.00;71.00
1650;DHT22;822;53.670;8.676;2023-05-14T00:04:16;13.00;71.10
1650;DHT22;822;53.670;8.676;2023-05-14T00:06:44;13.00;71.20
1650;DHT22;822;53.670;8.676;2023-05-14T00:09:11;13.00;71.20
1650;DHT22;822;53.670;8.676;2023-05-14T00:11:38;12.90;71.10
1650;DHT22;822;53.670;8.676;2023-05-14T00:14:07;12.90;71.10
1650;DHT22;822;53.670;8.676;2023-05-14T00:16:34;12.90;71.10
1650;DHT22;822;53.670;8.676;2023-05-14T00:19:01;12.90;71.10
1650;DHT22;822;53.670;8.676;2023-05-14T00:21:28;12.90;71.10
1650;DHT22;822;53.670;8.676;2023-05-14T00:23:56;12.90;71.00
1650;DHT22;822;53.670;8.676;2023-05-14T00:26:23;12.90;71.10
1650;DHT22;822;53.670;8.676;2023-05-14T00:28:50;12.90;71.30
1650;DHT22;822;53.670;8.676;2023-05-14T00:31:18;12.80;71.40
1650;DHT22;822;53.670;8.676;2023-05-14T00:33:46;12.80;71.60
1650;DHT22;822;53.670;8.676;2023-05-14T00:36:13;12.80;71.80
1650;DHT22;822;53.670;8.676;2023-05-14T00:38:40;12.80;72.00
1650;DHT22;822;53.670;8.676;2023-05-14T00:41:07;12.80;72.10
1650;DHT22;822;53.670;8.676;2023-05-14T00:43:34;12.80;72.20
1650;DHT22;822;53.670;8.676;2023-05-14T00:46:01;12.70;72.30
1650;DHT22;822;53.670;8.676;2023-05-14T00:48:30;12.70;72.40
1650;DHT22;822;53.670;8.676;2023-05-14T00:50:57;12.70;72.70
1650;DHT22;822;53.670;8.676;2023-05-14T00:53:24;12.70;72.90
1650;DHT22;822;53.670;8.676;2023-05-14T00:55:51;12.70;73.10
1650;DHT22;822;53.670;8.676;2023-05-14T00:58:19;12.70;73.20
1650;DHT22;822;53.670;8.676;2023-05-14T01:00:46;12.70;73.50
1650;DHT22;822;53.670;8.676;2023-05-14T01:03:13;12.60;73.50
1650;DHT22;822;53.670;8.676;2023-05-14T01:05:49;12.60;73.70
1650;DHT22;822;53.670;8.676;2023-05-14T01:08:30;12.60;73.80
1650;DHT22;822;53.670;8.676;2023-05-14T01:11:03;12.60;74.00
1650;DHT22;822;53.670;8.676;2023-05-14T01:13:38;12.60;74.00
1650;DHT22;822;53.670;8.676;2023-05-14T01:16:11;12.60;74.10
1650;DHT22;822;53.670;8.676;2023-05-14T01:18:40;12.60;74.80
1650;DHT22;822;53.670;8.676;2023-05-14T01:21:27;12.60;74.30
1650;DHT22;822;53.670;8.676;2023-05-14T01:23:59;12.60;74.40
1650;DHT22;822;53.670;8.676;2023-05-14T01:26:26;12.60;74.30
1650;DHT22;822;53.670;8.676;2023-05-14T01:28:58;12.60;74.30
1650;DHT22;822;53.670;8.676;2023-05-14T01:31:27;12.60;74.50
1650;DHT22;822;53.670;8.676;2023-05-14T01:33:57;12.60;74.50
1650;DHT22;822;53.670;8.676;2023-05-14T01:36:29;12.60;74.50
1650;DHT22;822;53.670;8.676;2023-05-14T01:38:58;12.60;74.70
1650;DHT22;822;53.670;8.676;2023-05-14T01:41:26;12.60;74.80
1650;DHT22;822;53.670;8.676;2023-05-14T01:43:56;12.50;74.90
1650;DHT22;822;53.670;8.676;2023-05-14T01:46:23;12.50;75.00
1650;DHT22;822;53.670;8.676;2023-05-14T01:48:50;12.40;75.20
1650;DHT22;822;53.670;8.676;2023-05-14T01:51:17;12.40;75.20
1650;DHT22;822;53.670;8.676;2023-05-14T01:53:45;12.40;75.30
1650;DHT22;822;53.670;8.676;2023-05-14T01:56:13;12.40;75.40
1650;DHT22;822;53.670;8.676;2023-05-14T01:58:40;12.30;75.50
1650;DHT22;822;53.670;8.676;2023-05-14T02:01:10;12.30;75.60
1650;DHT22;822;53.670;8.676;2023-05-14T02:03:38;12.30;75.70
1650;DHT22;822;53.670;8.676;2023-05-14T02:06:05;12.20;75.60
1650;DHT22;822;53.670;8.676;2023-05-14T02:08:32;12.20;75.70
1650;DHT22;822;53.670;8.676;2023-05-14T02:11:01;12.10;76.30
1650;DHT22;822;53.670;8.676;2023-05-14T02:13:28;12.10;76.60
1650;DHT22;822;53.670;8.676;2023-05-14T02:15:55;12.00;76.00
1650;DHT22;822;53.670;8.676;2023-05-14T02:18:22;12.00;76.10
1650;DHT22;822;53.670;8.676;2023-05-14T02:20:49;12.00;76.40
1650;DHT22;822;53.670;8.676;2023-05-14T02:23:16;12.00;76.60
1650;DHT22;822;53.670;8.676;2023-05-14T02:25:43;11.90;76.70
1650;DHT22;822;53.670;8.676;2023-05-14T02:28:12;11.90;76.90
1650;DHT22;822;53.670;8.676;2023-05-14T02:30:42;11.90;77.00
1650;DHT22;822;53.670;8.676;2023-05-14T02:33:09;11.90;77.30
1650;DHT22;822;53.670;8.676;2023-05-14T02:35:36;11.90;77.50
1650;DHT22;822;53.670;8.676;2023-05-14T02:38:03;11.90;77.70
1650;DHT22;822;53.670;8.676;2023-05-14T02:40:31;11.90;77.90
1650;DHT22;822;53.670;8.676;2023-05-14T02:42:58;11.80;78.00
1650;DHT22;822;53.670;8.676;2023-05-14T02:45:26;11.90;78.20
1650;DHT22;822;53.670;8.676;2023-05-14T02:47:53;11.80;78.30
1650;DHT22;822;53.670;8.676;2023-05-14T02:50:20;11.90;78.50
1650;DHT22;822;53.670;8.676;2023-05-14T02:52:48;11.80;78.70
1650;DHT22;822;53.670;8.676;2023-05-14T02:55:15;11.80;78.90
1650;DHT22;822;53.670;8.676;2023-05-14T02:57:42;11.80;79.10
1650;DHT22;822;53.670;8.676;2023-05-14T03:00:10;11.80;79.30
1650;DHT22;822;53.670;8.676;2023-05-14T03:02:39;11.80;79.30
1650;DHT22;822;53.670;8.676;2023-05-14T03:05:08;11.70;79.30
1650;DHT22;822;53.670;8.676;2023-05-14T03:07:35;11.70;79.50
1650;DHT22;822;53.670;8.676;2023-05-14T03:10:02;11.70;79.70
1650;DHT22;822;53.670;8.676;2023-05-14T03:12:30;11.60;79.70
1650;DHT22;822;53.670;8.676;2023-05-14T03:14:57;11.60;79.80
1650;DHT22;822;53.670;8.676;2023-05-14T03:17:24;11.60;79.90
1650;DHT22;822;53.670;8.676;2023-05-14T03:19:53;11.60;80.00
1650;DHT22;822;53.670;8.676;2023-05-14T03:22:20;11.60;80.00
1650;DHT22;822;53.670;8.676;2023-05-14T03:24:47;11.60;80.20
1650;DHT22;822;53.670;8.676;2023-05-14T03:27:14;11.60;80.30
1650;DHT22;822;53.670;8.676;2023-05-14T03:29:41;11.60;80.40
1650;DHT22;822;53.670;8.676;2023-05-14T03:32:08;11.60;80.40
1650;DHT22;822;53.670;8.676;2023-05-14T03:34:35;11.60;80.50
1650;DHT22;822;53.670;8.676;2023-05-14T03:37:04;11.60;80.60
1650;DHT22;822;53.670;8.676;2023-05-14T03:39:31;11.60;80.60
1650;DHT22;822;53.670;8.676;2023-05-14T03:41:58;11.60;80.70
1650;DHT22;822;53.670;8.676;2023-05-14T03:44:25;11.70;80.80
1650;DHT22;822;53.670;8.676;2023-05-14T03:46:52;11.70;80.90
1650;DHT22;822;53.670;8.676;2023-05-14T03:49:19;11.70;81.20
1650;DHT22;822;53.670;8.676;2023-05-14T03:51:46;11.70;81.40
1650;DHT22;822;53.670;8.676;2023-05-14T03:54:15;11.70;81.40
1650;DHT22;822;53.670;8.676;2023-05-14T03:56:42;11.70;81.50
1650;DHT22;822;53.670;8.676;2023-05-14T03:59:09;11.70;81.60
1650;DHT22;822;53.670;8.676;2023-05-14T04:01:36;11.70;81.90
1650;DHT22;822;53.670;8.676;2023-05-14T04:04:03;11.70;82.10
1650;DHT22;822;53.670;8.676;2023-05-14T04:06:31;11.70;82.20
1650;DHT22;822;53.670;8.676;2023-05-14T04:08:58;11.70;82.30
1650;DHT22;822;53.670;8.676;2023-05-14T04:11:27;11.70;82.40
1650;DHT22;822;53.670;8.676;2023-05-14T04:13:54;11.70;82.90
1650;DHT22;822;53.670;8.676;2023-05-14T04:16:21;11.80;83.10
1650;DHT22;822;53.670;8.676;2023-05-14T04:18:48;11.80;83.40
1650;DHT22;822;53.670;8.676;2023-05-14T04:21:15;11.80;83.40
1650;DHT22;822;53.670;8.676;2023-05-14T04:23:45;11.80;83.50
1650;DHT22;822;53.670;8.676;2023-05-14T04:26:12;11.90;83.80
1650;DHT22;822;53.670;8.676;2023-05-14T04:28:41;11.90;83.70
1650;DHT22;822;53.670;8.676;2023-05-14T04:31:08;11.90;83.80
1650;DHT22;822;53.670;8.676;2023-05-14T04:33:35;12.00;83.90
1650;DHT22;822;53.670;8.676;2023-05-14T04:36:03;12.00;84.00
1650;DHT22;822;53.670;8.676;2023-05-14T04:38:31;12.00;84.10
1650;DHT22;822;53.670;8.676;2023-05-14T04:40:58;12.10;84.10
1650;DHT22;822;53.670;8.676;2023-05-14T04:43:25;12.10;84.10
1650;DHT22;822;53.670;8.676;2023-05-14T04:45:53;12.20;84.20
1650;DHT22;822;53.670;8.676;2023-05-14T04:48:20;12.20;84.30
1650;DHT22;822;53.670;8.676;2023-05-14T04:50:47;12.20;84.40
1650;DHT22;822;53.670;8.676;2023-05-14T04:53:15;12.30;84.50
1650;DHT22;822;53.670;8.676;2023-05-14T04:55:42;12.30;84.60
1650;DHT22;822;53.670;8.676;2023-05-14T04:58:09;12.40;84.60
1650;DHT22;822;53.670;8.676;2023-05-14T05:00:36;12.50;84.60
1650;DHT22;822;53.670;8.676;2023-05-14T05:03:06;12.50;84.60
1650;DHT22;822;53.670;8.676;2023-05-14T05:05:33;12.60;85.00
1650;DHT22;822;53.670;8.676;2023-05-14T05:08:00;12.60;84.30
1650;DHT22;822;53.670;8.676;2023-05-14T05:10:28;12.70;84.30
1650;DHT22;822;53.670;8.676;2023-05-14T05:12:55;12.70;84.30
1650;DHT22;822;53.670;8.676;2023-05-14T05:15:22;12.70;84.50
1650;DHT22;822;53.670;8.676;2023-05-14T05:17:49;12.70;84.50
1650;DHT22;822;53.670;8.676;2023-05-14T05:20:18;12.80;84.70
1650;DHT22;822;53.670;8.676;2023-05-14T05:22:45;12.80;84.80
1650;DHT22;822;53.670;8.676;2023-05-14T05:25:12;12.80;84.80
1650;DHT22;822;53.670;8.676;2023-05-14T05:27:39;12.90;84.90
1650;DHT22;822;53.670;8.676;2023-05-14T05:30:07;12.90;84.90
1650;DHT22;822;53.670;8.676;2023-05-14T05:32:34;12.90;84.80
1650;DHT22;822;53.670;8.676;2023-05-14T05:35:02;13.00;84.80
1650;DHT22;822;53.670;8.676;2023-05-14T05:37:31;13.00;84.70
1650;DHT22;822;53.670;8.676;2023-05-14T05:39:58;13.00;84.70
1650;DHT22;822;53.670;8.676;2023-05-14T05:42:25;13.10;84.80
1650;DHT22;822;53.670;8.676;2023-05-14T05:44:52;13.10;84.70
1650;DHT22;822;53.670;8.676;2023-05-14T05:47:22;13.10;84.90
1650;DHT22;822;53.670;8.676;2023-05-14T05:49:49;13.20;85.00
1650;DHT22;822;53.670;8.676;2023-05-14T05:52:16;13.20;85.00
1650;DHT22;822;53.670;8.676;2023-05-14T05:54:48;13.20;85.00
1650;DHT22;822;53.670;8.676;2023-05-14T05:57:15;13.30;85.00
1650;DHT22;822;53.670;8.676;2023-05-14T05:59:42;13.30;85.00
1650;DHT22;822;53.670;8.676;2023-05-14T06:02:09;13.40;84.90
1650;DHT22;822;53.670;8.676;2023-05-14T06:04:37;13.40;84.80
1650;DHT22;822;53.670;8.676;2023-05-14T06:07:04;13.40;84.80
1650;DHT22;822;53.670;8.676;2023-05-14T06:09:31;13.50;84.90
1650;DHT22;822;53.670;8.676;2023-05-14T06:11:59;13.50;84.80
1650;DHT22;822;53.670;8.676;2023-05-14T06:14:26;13.60;84.80
1650;DHT22;822;53.670;8.676;2023-05-14T06:16:54;13.60;84.80
1650;DHT22;822;53.670;8.676;2023-05-14T06:19:21;13.70;85.00
1650;DHT22;822;53.670;8.676;2023-05-14T06:21:48;13.70;85.00
1650;DHT22;822;53.670;8.676;2023-05-14T06:24:15;13.80;85.40
1650;DHT22;822;53.670;8.676;2023-05-14T06:26:44;13.80;85.30
1650;DHT22;822;53.670;8.676;2023-05-14T06:29:14;13.90;85.30
1650;DHT22;822;53.670;8.676;2023-05-14T06:31:42;13.90;85.40
1650;DHT22;822;53.670;8.676;2023-05-14T06:34:09;14.00;85.50
1650;DHT22;822;53.670;8.676;2023-05-14T06:36:36;14.10;85.60
1650;DHT22;822;53.670;8.676;2023-05-14T06:39:03;14.10;85.70
1650;DHT22;822;53.670;8.676;2023-05-14T06:41:31;14.20;85.90
1650;DHT22;822;53.670;8.676;2023-05-14T06:44:01;14.20;85.80
1650;DHT22;822;53.670;8.676;2023-05-14T06:46:30;14.30;85.80
1650;DHT22;822;53.670;8.676;2023-05-14T06:48:57;14.40;85.90
1650;DHT22;822;53.670;8.676;2023-05-14T06:51:24;14.40;85.80
1650;DHT22;822;53.670;8.676;2023-05-14T06:53:51;14.50;85.90
1650;DHT22;822;53.670;8.676;2023-05-14T06:56:19;14.50;85.90
1650;DHT22;822;53.670;8.676;2023-05-14T06:58:46;14.60;85.90
1650;DHT22;822;53.670;8.676;2023-05-14T07:01:14;14.70;85.90
1650;DHT22;822;53.670;8.676;2023-05-14T07:03:50;14.80;86.00
1650;DHT22;822;53.670;8.676;2023-05-14T07:06:18;14.90;86.10
1650;DHT22;822;53.670;8.676;2023-05-14T07:08:45;15.00;85.30
1650;DHT22;822;53.670;8.676;2023-05-14T07:11:12;15.10;85.30
1650;DHT22;822;53.670;8.676;2023-05-14T07:13:40;15.20;85.40
1650;DHT22;822;53.670;8.676;2023-05-14T07:16:07;15.30;84.40
1650;DHT22;822;53.670;8.676;2023-05-14T07:18:35;15.50;84.60
1650;DHT22;822;53.670;8.676;2023-05-14T07:21:04;15.60;84.30
1650;DHT22;822;53.670;8.676;2023-05-14T07:23:31;15.80;84.50
1650;DHT22;822;53.670;8.676;2023-05-14T07:26:01;16.00;83.90
1650;DHT22;822;53.670;8.676;2023-05-14T07:28:28;16.10;83.50
1650;DHT22;822;53.670;8.676;2023-05-14T07:30:55;16.30;83.10
1650;DHT22;822;53.670;8.676;2023-05-14T07:33:22;16.40;81.90
1650;DHT22;822;53.670;8.676;2023-05-14T07:35:50;16.60;81.50
1650;DHT22;822;53.670;8.676;2023-05-14T07:38:19;16.60;80.60
1650;DHT22;822;53.670;8.676;2023-05-14T07:40:46;16.80;80.30
1650;DHT22;822;53.670;8.676;2023-05-14T07:43:14;16.90;79.70
1650;DHT22;822;53.670;8.676;2023-05-14T07:45:41;16.90;79.20
1650;DHT22;822;53.670;8.676;2023-05-14T07:48:08;17.00;77.60
1650;DHT22;822;53.670;8.676;2023-05-14T07:50:36;17.10;77.00
1650;DHT22;822;53.670;8.676;2023-05-14T07:53:04;17.20;76.30
1650;DHT22;822;53.670;8.676;2023-05-14T07:55:32;17.30;76.10
1650;DHT22;822;53.670;8.676;2023-05-14T07:57:59;17.50;75.60
1650;DHT22;822;53.670;8.676;2023-05-14T08:00:27;17.70;74.70
1650;DHT22;822;53.670;8.676;2023-05-14T08:02:54;17.90;73.60
1650;DHT22;822;53.670;8.676;2023-05-14T08:05:21;18.10;72.00
1650;DHT22;822;53.670;8.676;2023-05-14T08:07:48;18.20;71.20
1650;DHT22;822;53.670;8.676;2023-05-14T08:10:15;18.30;71.00
1650;DHT22;822;53.670;8.676;2023-05-14T08:12:44;18.40;70.30
1650;DHT22;822;53.670;8.676;2023-05-14T08:15:11;18.50;69.50
1650;DHT22;822;53.670;8.676;2023-05-14T08:17:38;18.60;68.90
1650;DHT22;822;53.670;8.676;2023-05-14T08:20:06;18.70;68.60
1650;DHT22;822;53.670;8.676;2023-05-14T08:22:36;18.80;66.90
1650;DHT22;822;53.670;8.676;2023-05-14T08:25:04;19.00;65.90
1650;DHT22;822;53.670;8.676;2023-05-14T08:27:32;19.10;63.30
1650;DHT22;822;53.670;8.676;2023-05-14T08:30:01;19.20;62.10
1650;DHT22;822;53.670;8.676;2023-05-14T08:32:28;19.30;61.40
1650;DHT22;822;53.670;8.676;2023-05-14T08:34:55;19.40;61.00
1650;DHT22;822;53.670;8.676;2023-05-14T08:37:23;19.50;60.90
1650;DHT22;822;53.670;8.676;2023-05-14T08:39:50;19.70;60.90
1650;DHT22;822;53.670;8.676;2023-05-14T08:42:19;19.90;59.70
1650;DHT22;822;53.670;8.676;2023-05-14T08:44:48;20.10;59.30
1650;DHT22;822;53.670;8.676;2023-05-14T08:47:21;20.20;59.20
1650;DHT22;822;53.670;8.676;2023-05-14T08:49:54;20.40;57.70
1650;DHT22;822;53.670;8.676;2023-05-14T08:52:22;20.50;55.80
1650;DHT22;822;53.670;8.676;2023-05-14T08:54:50;20.60;55.30
1650;DHT22;822;53.670;8.676;2023-05-14T08:57:19;20.60;55.40
1650;DHT22;822;53.670;8.676;2023-05-14T08:59:49;20.70;55.90
1650;DHT22;822;53.670;8.676;2023-05-14T09:02:17;20.80;55.00
1650;DHT22;822;53.670;8.676;2023-05-14T09:04:48;20.90;55.40
1650;DHT22;822;53.670;8.676;2023-05-14T09:07:19;21.00;52.50
1650;DHT22;822;53.670;8.676;2023-05-14T09:09:46;21.10;54.00
1650;DHT22;822;53.670;8.676;2023-05-14T09:12:13;21.20;52.50
1650;DHT22;822;53.670;8.676;2023-05-14T09:14:41;21.30;53.00
1650;DHT22;822;53.670;8.676;2023-05-14T09:17:08;21.30;53.80
1650;DHT22;822;53.670;8.676;2023-05-14T09:19:38;21.40;52.40
1650;DHT22;822;53.670;8.676;2023-05-14T09:22:08;21.40;51.80
1650;DHT22;822;53.670;8.676;2023-05-14T09:24:35;21.50;52.30
1650;DHT22;822;53.670;8.676;2023-05-14T09:27:04;21.50;50.50
1650;DHT22;822;53.670;8.676;2023-05-14T09:29:31;21.50;50.00
1650;DHT22;822;53.670;8.676;2023-05-14T09:32:00;21.60;50.60
1650;DHT22;822;53.670;8.676;2023-05-14T09:34:30;21.60;48.80
1650;DHT22;822;53.670;8.676;2023-05-14T09:37:00;21.50;47.20
1650;DHT22;822;53.670;8.676;2023-05-14T09:39:29;21.40;46.60
1650;DHT22;822;53.670;8.676;2023-05-14T09:41:57;21.40;49.60
1650;DHT22;822;53.670;8.676;2023-05-14T09:44:24;21.50;51.20
1650;DHT22;822;53.670;8.676;2023-05-14T09:46:52;21.60;50.30
1650;DHT22;822;53.670;8.676;2023-05-14T09:49:19;21.60;48.90
1650;DHT22;822;53.670;8.676;2023-05-14T09:51:48;21.70;48.20
1650;DHT22;822;53.670;8.676;2023-05-14T09:54:15;21.70;48.00
1650;DHT22;822;53.670;8.676;2023-05-14T09:56:44;21.80;49.00
1650;DHT22;822;53.670;8.676;2023-05-14T09:59:11;21.90;48.70
1650;DHT22;822;53.670;8.676;2023-05-14T10:01:39;21.90;49.00
1650;DHT22;822;53.670;8.676;2023-05-14T10:04:09;22.00;48.80
1650;DHT22;822;53.670;8.676;2023-05-14T10:06:38;22.10;49.00
1650;DHT22;822;53.670;8.676;2023-05-14T10:09:12;22.10;46.40
1650;DHT22;822;53.670;8.676;2023-05-14T10:11:44;22.10;45.70
1650;DHT22;822;53.670;8.676;2023-05-14T10:14:19;22.00;45.30
1650;DHT22;822;53.670;8.676;2023-05-14T10:16:50;22.00;48.10
1650;DHT22;822;53.670;8.676;2023-05-14T10:19:20;22.10;47.40
1650;DHT22;822;53.670;8.676;2023-05-14T10:21:54;22.10;47.20
1650;DHT22;822;53.670;8.676;2023-05-14T10:24:25;22.20;47.00
1650;DHT22;822;53.670;8.676;2023-05-14T10:26:54;22.30;47.90
1650;DHT22;822;53.670;8.676;2023-05-14T10:29:31;22.30;46.60
1650;DHT22;822;53.670;8.676;2023-05-14T10:32:03;22.30;44.00
1650;DHT22;822;53.670;8.676;2023-05-14T10:34:35;22.30;46.60
1650;DHT22;822;53.670;8.676;2023-05-14T10:37:08;22.30;47.10
1650;DHT22;822;53.670;8.676;2023-05-14T10:39:43;22.30;46.50
1650;DHT22;822;53.670;8.676;2023-05-14T10:42:16;22.40;47.00
1650;DHT22;822;53.670;8.676;2023-05-14T10:44:49;22.50;47.00
1650;DHT22;822;53.670;8.676;2023-05-14T10:47:17;22.60;46.70
1650;DHT22;822;53.670;8.676;2023-05-14T10:49:45;22.80;45.50
1650;DHT22;822;53.670;8.676;2023-05-14T10:52:16;22.80;45.30
1650;DHT22;822;53.670;8.676;2023-05-14T10:54:53;22.90;46.30
1650;DHT22;822;53.670;8.676;2023-05-14T10:57:23;22.80;43.20
1650;DHT22;822;53.670;8.676;2023-05-14T10:59:51;22.80;46.30
1650;DHT22;822;53.670;8.676;2023-05-14T11:02:25;22.70;43.10
1650;DHT22;822;53.670;8.676;2023-05-14T11:04:57;22.50;44.40
1650;DHT22;822;53.670;8.676;2023-05-14T11:07:28;22.30;44.00
1650;DHT22;822;53.670;8.676;2023-05-14T11:10:02;22.30;45.40
1650;DHT22;822;53.670;8.676;2023-05-14T11:12:31;22.30;45.50
1650;DHT22;822;53.670;8.676;2023-05-14T11:15:00;22.40;42.60
1650;DHT22;822;53.670;8.676;2023-05-14T11:17:29;22.40;43.40
1650;DHT22;822;53.670;8.676;2023-05-14T11:19:58;22.40;43.90
1650;DHT22;822;53.670;8.676;2023-05-14T11:22:26;22.40;45.60
1650;DHT22;822;53.670;8.676;2023-05-14T11:24:53;22.50;45.90
1650;DHT22;822;53.670;8.676;2023-05-14T11:27:21;22.70;46.00
1650;DHT22;822;53.670;8.676;2023-05-14T11:29:50;22.80;44.90
1650;DHT22;822;53.670;8.676;2023-05-14T11:32:17;23.00;45.00
1650;DHT22;822;53.670;8.676;2023-05-14T11:34:45;23.20;45.40
1650;DHT22;822;53.670;8.676;2023-05-14T11:37:14;23.40;43.30
1650;DHT22;822;53.670;8.676;2023-05-14T11:39:47;23.40;41.20
1650;DHT22;822;53.670;8.676;2023-05-14T11:42:14;23.50;42.60
1650;DHT22;822;53.670;8.676;2023-05-14T11:44:46;23.60;43.10
1650;DHT22;822;53.670;8.676;2023-05-14T11:47:17;23.70;42.70
1650;DHT22;822;53.670;8.676;2023-05-14T11:49:47;23.80;42.40
1650;DHT22;822;53.670;8.676;2023-05-14T11:52:15;24.00;41.40
1650;DHT22;822;53.670;8.676;2023-05-14T11:54:44;24.10;41.60
1650;DHT22;822;53.670;8.676;2023-05-14T11:57:16;24.20;41.70
1650;DHT22;822;53.670;8.676;2023-05-14T11:59:44;24.20;39.50
1650;DHT22;822;53.670;8.676;2023-05-14T12:02:13;24.30;39.90
1650;DHT22;822;53.670;8.676;2023-05-14T12:04:49;24.20;39.00
1650;DHT22;822;53.670;8.676;2023-05-14T12:07:16;24.20;42.50
1650;DHT22;822;53.670;8.676;2023-05-14T12:09:45;24.10;42.80
1650;DHT22;822;53.670;8.676;2023-05-14T12:12:15;24.00;42.00
1650;DHT22;822;53.670;8.676;2023-05-14T12:14:43;24.10;42.60
1650;DHT22;822;53.670;8.676;2023-05-14T12:17:13;24.00;38.80
1650;DHT22;822;53.670;8.676;2023-05-14T12:19:40;23.80;41.00
1650;DHT22;822;53.670;8.676;2023-05-14T12:22:13;23.70;40.40
1650;DHT22;822;53.670;8.676;2023-05-14T12:24:42;23.60;40.10
1650;DHT22;822;53.670;8.676;2023-05-14T12:27:11;23.40;39.50
1650;DHT22;822;53.670;8.676;2023-05-14T12:29:38;23.20;40.30
1650;DHT22;822;53.670;8.676;2023-05-14T12:32:09;23.10;43.00
1650;DHT22;822;53.670;8.676;2023-05-14T12:34:36;22.90;41.20
1650;DHT22;822;53.670;8.676;2023-05-14T12:37:04;22.80;43.70
1650;DHT22;822;53.670;8.676;2023-05-14T12:39:36;22.90;45.30
1650;DHT22;822;53.670;8.676;2023-05-14T12:42:06;23.00;44.30
1650;DHT22;822;53.670;8.676;2023-05-14T12:44:33;23.00;43.00
1650;DHT22;822;53.670;8.676;2023-05-14T12:47:01;22.90;42.20
1650;DHT22;822;53.670;8.676;2023-05-14T12:49:28;22.80;43.90
1650;DHT22;822;53.670;8.676;2023-05-14T12:51:55;22.80;43.00
1650;DHT22;822;53.670;8.676;2023-05-14T12:54:22;22.70;44.90
1650;DHT22;822;53.670;8.676;2023-05-14T12:56:51;22.60;43.00
1650;DHT22;822;53.670;8.676;2023-05-14T12:59:18;22.40;42.50
1650;DHT22;822;53.670;8.676;2023-05-14T13:01:45;22.40;44.30
1650;DHT22;822;53.670;8.676;2023-05-14T13:04:15;22.30;44.70
1650;DHT22;822;53.670;8.676;2023-05-14T13:06:43;22.20;42.00
1650;DHT22;822;53.670;8.676;2023-05-14T13:09:10;22.10;44.30
1650;DHT22;822;53.670;8.676;2023-05-14T13:11:37;21.90;44.90
1650;DHT22;822;53.670;8.676;2023-05-14T13:14:05;21.90;46.30
1650;DHT22;822;53.670;8.676;2023-05-14T13:16:32;21.80;45.80
1650;DHT22;822;53.670;8.676;2023-05-14T13:19:00;21.80;47.40
1650;DHT22;822;53.670;8.676;2023-05-14T13:21:27;21.70;46.70
1650;DHT22;822;53.670;8.676;2023-05-14T13:23:54;21.70;45.20
1650;DHT22;822;53.670;8.676;2023-05-14T13:26:21;21.80;45.40
1650;DHT22;822;53.670;8.676;2023-05-14T13:28:51;21.80;46.70
1650;DHT22;822;53.670;8.676;2023-05-14T13:31:19;21.80;46.80
1650;DHT22;822;53.670;8.676;2023-05-14T13:33:46;21.70;45.10
1650;DHT22;822;53.670;8.676;2023-05-14T13:36:14;21.70;45.00
1650;DHT22;822;53.670;8.676;2023-05-14T13:38:41;21.70;44.60
1650;DHT22;822;53.670;8.676;2023-05-14T13:41:10;21.70;45.00
1650;DHT22;822;53.670;8.676;2023-05-14T13:43:37;21.60;46.80
1650;DHT22;822;53.670;8.676;2023-05-14T13:46:05;21.60;47.50
1650;DHT22;822;53.670;8.676;2023-05-14T13:48:34;21.60;47.60
1650;DHT22;822;53.670;8.676;2023-05-14T13:51:02;21.50;48.40
1650;DHT22;822;53.670;8.676;2023-05-14T13:53:29;21.40;47.80
1650;DHT22;822;53.670;8.676;2023-05-14T13:55:56;21.30;47.70
1650;DHT22;822;53.670;8.676;2023-05-14T13:58:25;21.30;48.70
1650;DHT22;822;53.670;8.676;2023-05-14T14:00:53;21.30;48.40
1650;DHT22;822;53.670;8.676;2023-05-14T14:03:21;21.20;48.80
1650;DHT22;822;53.670;8.676;2023-05-14T14:05:49;21.20;48.20
1650;DHT22;822;53.670;8.676;2023-05-14T14:08:17;21.30;46.60
1650;DHT22;822;53.670;8.676;2023-05-14T14:10:44;21.40;46.40
1650;DHT22;822;53.670;8.676;2023-05-14T14:13:11;21.60;46.10
1650;DHT22;822;53.670;8.676;2023-05-14T14:15:38;21.70;44.00
1650;DHT22;822;53.670;8.676;2023-05-14T14:18:05;21.70;43.40
1650;DHT22;822;53.670;8.676;2023-05-14T14:20:32;21.80;44.30
1650;DHT22;822;53.670;8.676;2023-05-14T14:23:01;21.70;42.60
1650;DHT22;822;53.670;8.676;2023-05-14T14:25:28;21.70;43.30
1650;DHT22;822;53.670;8.676;2023-05-14T14:27:55;21.70;44.30
1650;DHT22;822;53.670;8.676;2023-05-14T14:30:23;21.60;44.00
1650;DHT22;822;53.670;8.676;2023-05-14T14:32:50;21.60;44.20
1650;DHT22;822;53.670;8.676;2023-05-14T14:35:18;21.60;42.70
1650;DHT22;822;53.670;8.676;2023-05-14T14:37:46;21.60;42.60
1650;DHT22;822;53.670;8.676;2023-05-14T14:40:17;21.60;42.60
1650;DHT22;822;53.670;8.676;2023-05-14T14:42:44;21.70;41.90
1650;DHT22;822;53.670;8.676;2023-05-14T14:45:11;21.70;41.10
1650;DHT22;822;53.670;8.676;2023-05-14T14:47:42;21.70;41.80
1650;DHT22;822;53.670;8.676;2023-05-14T14:50:10;21.80;41.80
1650;DHT22;822;53.670;8.676;2023-05-14T14:52:38;21.80;39.90
1650;DHT22;822;53.670;8.676;2023-05-14T14:55:08;21.80;41.60
1650;DHT22;822;53.670;8.676;2023-05-14T14:57:37;21.90;42.70
1650;DHT22;822;53.670;8.676;2023-05-14T15:00:08;21.80;43.70
1650;DHT22;822;53.670;8.676;2023-05-14T15:02:35;21.80;43.70
1650;DHT22;822;53.670;8.676;2023-05-14T15:05:04;21.80;44.70
1650;DHT22;822;53.670;8.676;2023-05-14T15:07:31;21.70;46.50
1650;DHT22;822;53.670;8.676;2023-05-14T15:09:58;21.70;47.30
1650;DHT22;822;53.670;8.676;2023-05-14T15:12:25;21.60;47.30
1650;DHT22;822;53.670;8.676;2023-05-14T15:14:54;21.60;49.10
1650;DHT22;822;53.670;8.676;2023-05-14T15:17:21;21.50;50.10
1650;DHT22;822;53.670;8.676;2023-05-14T15:19:48;21.40;50.50
1650;DHT22;822;53.670;8.676;2023-05-14T15:22:15;21.40;51.50
1650;DHT22;822;53.670;8.676;2023-05-14T15:24:42;21.40;51.50
1650;DHT22;822;53.670;8.676;2023-05-14T15:27:09;21.30;52.70
1650;DHT22;822;53.670;8.676;2023-05-14T15:29:36;21.20;53.30
1650;DHT22;822;53.670;8.676;2023-05-14T15:32:05;21.20;54.20
1650;DHT22;822;53.670;8.676;2023-05-14T15:34:33;21.20;53.90
1650;DHT22;822;53.670;8.676;2023-05-14T15:37:00;21.20;53.70
1650;DHT22;822;53.670;8.676;2023-05-14T15:39:27;21.10;53.30
1650;DHT22;822;53.670;8.676;2023-05-14T15:41:56;21.10;52.30
1650;DHT22;822;53.670;8.676;2023-05-14T15:44:23;21.10;51.50
1650;DHT22;822;53.670;8.676;2023-05-14T15:46:51;21.00;51.70
1650;DHT22;822;53.670;8.676;2023-05-14T15:49:22;21.00;50.90
1650;DHT22;822;53.670;8.676;2023-05-14T15:51:50;21.00;50.40
1650;DHT22;822;53.670;8.676;2023-05-14T15:54:17;20.90;50.20
1650;DHT22;822;53.670;8.676;2023-05-14T15:56:44;20.90;50.60
1650;DHT22;822;53.670;8.676;2023-05-14T15:59:12;20.90;50.70
1650;DHT22;822;53.670;8.676;2023-05-14T16:01:41;20.90;50.70
1650;DHT22;822;53.670;8.676;2023-05-14T16:04:09;20.90;49.40
1650;DHT22;822;53.670;8.676;2023-05-14T16:06:37;20.90;49.30
1650;DHT22;822;53.670;8.676;2023-05-14T16:09:06;20.90;49.60
1650;DHT22;822;53.670;8.676;2023-05-14T16:11:34;20.90;49.30
1650;DHT22;822;53.670;8.676;2023-05-14T16:14:01;20.80;48.10
1650;DHT22;822;53.670;8.676;2023-05-14T16:16:28;20.80;49.30
1650;DHT22;822;53.670;8.676;2023-05-14T16:18:56;20.80;51.40
1650;DHT22;822;53.670;8.676;2023-05-14T16:21:23;20.80;52.60
1650;DHT22;822;53.670;8.676;2023-05-14T16:23:51;20.80;53.30